City's sites:

title views votes rating creation
?never been here 367 12 (3.08)  2010-02-07
?pastel negro 585 14 (2.50)  2010-02-07
?dizzy 261 8 (3.38)  2010-02-07
?two pictures from my desktop 856 16 (3.69)  2010-02-09
?broken clock realizes he is the last object left in the ... 416 10 (3.20)  2010-02-09
?heroes of old 568 19 (3.74)  2010-02-09
?mr. price 420 8 (3.25)  2010-02-09
?Music I Like - Part 1 596 10 (3.60)  2010-02-10
?Music I Like - Part 2 371 13 (3.54)  2010-02-10
?Music I Like - Part 3 524 13 (3.69)  2010-02-10
?Music I Like - Part 4 407 5 (3.20)  2010-02-10
?intense 514 9 (3.78)  2010-02-10
?oh SNAP 751 9 (3.22)  2010-02-10
?Music I Like - Part 5 528 9 (3.56)  2010-02-10
?SignlanguageTMND 365 14 (3.86)  2010-02-10
?lol internet (refresh) 575 6 (3.17)  2010-02-12
?Dumbeldore kills snape! 3,289 67 (4.03)  2010-02-12
?prairiedogeric10 tribute site 655 23 (3.96)  2010-02-13
?Legolewdite fan club 1,272 38 (3.87)  2010-02-13
?Connery retires 390 13 (3.85)  2010-02-13
?TOURNEY4: lol internet 521 7 (2.43)  2010-02-15
?Speed Deemon 944 23 (3.74)  2010-02-23
?Tribute: ASSCOCKredux 1,594 64 (3.91)  2010-02-23
?some light jazz with Robert De Niro 821 12 (3.50)  2010-02-23
?In What Language 1,431 34 (3.74)  2010-02-24
?go go go go go go go go go go go go go go go go ... 2,044 23 (3.74)  2010-02-24
?FEARCONDOM'S FAMILY Q U I L T 591 11 (3.55)  2010-02-24
?TEST 735 19 (3.84)  2010-02-26
?....someday, oh dream maker DUNANANANAN... 5,065 148 (3.96)  2010-02-28
?DOUGH FUNNIE HOMO DICKS 605 12 (3.58)  2010-03-01
?Using a concrete bricK 570 17 (3.82)  2010-03-01
?I had sex with a Kayan Tribe woman, little help plea... 916 11 (3.36)  2010-03-03
?Adventure 4 1,043 18 (3.61)  2010-03-03
?the standoff 442 9 (3.67)  2010-03-03
?alley children 518 11 (3.91)  2010-03-05
?Steven Seagal isn't impressed 9,802 181 (4.17)  2010-03-05
?Daunting Steps 219 7 (3.00)  2010-03-05
?Cruel and Unusual 6,150 163 (4.24)  2010-03-09
?DancehallTMND 443 10 (3.80)  2010-03-12
?FUCK OUT MY FACE 490 5 (2.60)  2010-03-18
?16, no dither 767 18 (3.94)  2010-03-20
?say hi to my girlfriend 931 16 (3.81)  2010-03-21
?TT 564 16 (3.88)  2010-03-23
?jimmm thinks about his next five 661 20 (3.80)  2010-03-24
?THE TELEKINETIC MAN 279 18 (3.50)  2010-03-25
?. 122 7 (2.71)  2010-03-26
?1! 335 17 (3.35)  2010-03-26
?Fake crocodile takes it to the limit one more time 599 9 (3.67)  2010-03-27
?croctheme 398 4 (3.25)  2010-03-27
?crocodile site 398 6 (3.50)  2010-03-27
?CROC MAKES A 187 LOOK EASY 186 6 (3.33)  2010-03-27
?New Croc SIte 165 5 (3.40)  2010-03-27
?L 327 19 (3.63)  2010-03-27
?crocodile sIte 256 10 (3.50)  2010-03-30
?Pleasant® 308 8 (3.38)  2010-03-30
?A Lovely Ride 261 13 (3.85)  2010-03-30
?It's glorious today 289 14 (3.64)  2010-04-01
?Na - Zu 426 10 (3.70)  2010-04-01
?WHO'NOWOWOWOW 414 5 (2.60)  2010-04-03
?part of your world 213 5 (3.00)  2010-04-04
?fff 175 4 (3.50)  2010-04-04
?FIve-star webiste 962 16 (1.94)  2010-04-04
?Captain Haddock 1,714 28 (3.86)  2010-04-04
?, 251 9 (3.33)  2010-04-05
?indnian 403 7 (2.71)  2010-04-05
?Ricky Manning tribute sIte will be Underway soon ! 215 3 (3.67)  2010-04-06
?Epic Domain Grab 202 6 (2.17)  2010-04-06
?retirement site 163 6 (2.83)  2010-04-06
?Paul newman doesn't drive a VAN 192 4 (3.00)  2010-04-06
?Vince McMan 338 7 (2.86)  2010-04-06
?LOL 303 5 (3.00)  2010-04-06
?wut 293 4 (2.75)  2010-04-06
?www.coachcarter.ytmnd.com 326 8 (1.88)  2010-04-06
?untitled 300 7 (2.14)  2010-04-09
?ExpirimennalTYTMND 368 8 (3.38)  2010-04-09
?jioejejejoijiojiojioejiejoijeoj 407 14 (3.79)  2010-04-09
?Jake Steele catches a fly ball 354 4 (3.50)  2010-04-10
?Jake Steele forgets the milk 336 3 (3.00)  2010-04-10
?Jake Steele just found his watch 318 4 (3.25)  2010-04-10
?Jake Steele grows up a bit 436 7 (2.86)  2010-04-10
?KRA2008 366 5 (2.60)  2010-04-10
?Fuck the world 772 26 (3.88)  2010-04-16
?a sexual guy 500 10 (2.30)  2010-05-12
?well 317 4 (4.25)  2010-09-03
?gay site you can watch while thinking about stuff 1,558 15 (4.07)  2010-09-13
?site dedicated to great warchief 1,275 12 (3.58)  2010-09-16
?38388 848 8 (3.88)  2010-09-16
?watching the world buzz by 506 4 (3.50)  2010-09-16
?what now 1,437 17 (3.94)  2010-09-16